Terminal Aerodrome Forecast
Issued by NWS

Home | Current Version | Previous Version | Text Only | Print | Product List | Glossary On
Versions: 1 2 3 4 5 6 7 8 9 10 11 12 13 14 15
000
FTUS41 KBTV 292320
TAFPBG
TAF
KPBG 292320Z 3000/3024 17010KT 3SM TSRA BR OVC035CB
     FM300100 17009KT 6SM -SHRA BR BKN035 OVC050
     FM300500 17008KT 6SM BR VCSH OVC040
     FM301200 21009KT P6SM BKN060
     FM301900 21009KT P6SM BKN070=

USA.gov is the U.S. government's official web portal to all federal, state and local government web resources and services.